Flight Track Log - Related Links

Times and Time Zones

All times are in EDT time to prevent confusion due to time zone crossing. See the TYR790 flight status page for this flight to view local times or setup timezone preferences in your user account.

Time Position Orientation Groundspeed Altitude Reporting Facility
EDT Latitude Longitude Course Direction KTS MPH feet Rate Location/Type
Thu 04:26:00 AM 44.8424 25.4802 302° West  Level Estimated
Thu 04:27:00 AM 44.8960 25.3552 301° West  Level Estimated
Thu 04:28:00 AM 44.9495 25.2299 301° West  Level Estimated
Thu 04:29:00 AM 45.0029 25.1043 301° West  Level Estimated
Thu 04:30:00 AM 45.0561 24.9785 301° West  Level Estimated
Thu 04:31:00 AM 45.1092 24.8525 301° West  Level Estimated
Thu 04:32:00 AM 45.1622 24.7262 301° West  Level Estimated
Thu 04:33:00 AM 45.2150 24.5998 301° West  Level Estimated
Thu 04:34:00 AM 45.2676 24.4730 301° West  Level Estimated
Thu 04:35:00 AM 45.3202 24.3461 301° West  Level Estimated
Thu 04:36:00 AM 45.3726 24.2189 300° West  Level Estimated
Thu 04:37:00 AM 45.4248 24.0915 300° West  Level Estimated
Thu 04:38:00 AM 45.4769 23.9638 300° West  Level Estimated
Thu 04:39:00 AM 45.5289 23.8359 300° West  Level Estimated
Thu 04:40:00 AM 45.5807 23.7078 300° West  Level Estimated
Thu 04:41:00 AM 45.6324 23.5794 300° West  Level Estimated
Thu 04:42:00 AM 45.6839 23.4508 300° West  Level Estimated
Thu 04:43:00 AM 45.7353 23.3220 300° West  Level Estimated
Thu 04:44:00 AM 45.7865 23.1929 300° West  Level Estimated
Thu 04:45:00 AM 45.8377 23.0636 300° West  Level Estimated
Thu 04:46:00 AM 45.8886 22.9340 300° West  Level Estimated
Thu 04:47:00 AM 45.9394 22.8042 299° West  Level Estimated
Thu 04:48:00 AM 45.9901 22.6742 299° West  Level Estimated
Thu 04:49:00 AM 46.0406 22.5439 299° West  Level Estimated
Thu 04:50:00 AM 46.0909 22.4134 299° West  Level Estimated
Thu 04:51:00 AM 46.1412 22.2826 299° West  Level Estimated
Thu 04:52:00 AM 46.1912 22.1517 299° West  Level Estimated
Thu 04:53:00 AM 46.2411 22.0204 299° West  Level Estimated
Thu 04:54:00 AM 46.2909 21.8890 299° West  Level Estimated
Thu 04:55:00 AM 46.3405 21.7573 299° West  Level Estimated
Thu 04:56:00 AM 46.3900 21.6253 299° West  Level Estimated
Thu 04:57:00 AM 46.4393 21.4932 298° West  Level Estimated
Thu 04:58:00 AM 46.4884 21.3607 298° West  Level Estimated
Thu 04:59:00 AM 46.5374 21.2281 298° West  Level Estimated
Thu 05:00:00 AM 46.5863 21.0952 298° West  Level Estimated
Thu 05:01:00 AM 46.6350 20.9620 298° West  Level Estimated
Thu 05:02:00 AM 46.6835 20.8287 298° West  Level Estimated
Thu 05:03:00 AM 46.7319 20.6951 298° West  Level Estimated
Thu 05:04:00 AM 46.7801 20.5612 298° West  Level Estimated
Thu 05:05:00 AM 46.8282 20.4271 298° West  Level Estimated
Thu 05:06:00 AM 46.8761 20.2928 298° West  Level Estimated
Thu 05:07:00 AM 46.9239 20.1582 297° West  Level Estimated
Thu 05:08:00 AM 46.9715 20.0234 297° West  Level Estimated
Thu 05:09:00 AM 47.0189 19.8883 297° West  Level Estimated
Thu 05:10:00 AM 47.0662 19.7530 297° West  Level Estimated
Thu 05:11:00 AM 47.1133 19.6175 297° West  Level Estimated
Thu 05:12:00 AM 47.1603 19.4818 297° West  Level Estimated
Thu 05:13:00 AM 47.2071 19.3457 297° West  Level Estimated
Thu 05:14:00 AM 47.2537 19.2095 297° West  Level Estimated
Thu 05:15:00 AM 47.3002 19.0730 297° West  Level Estimated
Thu 05:16:00 AM 47.3465 18.9363 297° West  Level Estimated
Thu 05:17:00 AM 47.3927 18.7993 297° West  Level Estimated
Thu 05:18:00 AM 47.4387 18.6621 296° West  Level Estimated
Thu 05:19:00 AM 47.4845 18.5246 296° West  Level Estimated
Thu 05:20:00 AM 47.5302 18.3869 296° West  Level Estimated
Thu 05:21:00 AM 47.5757 18.2490 296° West  Level Estimated
Thu 05:22:00 AM 47.6210 18.1108 296° West  Level Estimated
Thu 05:23:00 AM 47.6662 17.9724 296° West  Level Estimated
Thu 05:24:00 AM 47.7112 17.8338 296° West  Level Estimated
Thu 05:25:00 AM 47.7560 17.6949 296° West  Level Estimated
Thu 05:26:00 AM 47.8007 17.5558 296° West  Level Estimated
Thu 05:27:00 AM 47.8452 17.4164 295° West  Level Estimated
Thu 05:28:00 AM 47.8895 17.2768 295° West  Level Estimated
Thu 05:29:00 AM 47.9337 17.1370 295° West  Level Estimated
Thu 05:30:00 AM 47.9776 16.9969 295° West  Level Estimated
Thu 05:31:00 AM 48.0215 16.8566 295° West  Level Estimated
Thu 05:32:00 AM 48.0651 16.7160 295° West  Level Estimated
Thu 05:33:00 AM 48.1086 16.5752 295° West  Level Estimated
Thu 05:34:00 AM 48.1103 16.5697 295° West  Level Estimated
Thu 05:35:00 AM 48.1103 16.5697 North  Level Estimated
Thu 05:36:00 AM 48.1103 16.5697 North  Level Estimated
Thu 05:37:00 AM 48.1103 16.5697 North  Level Estimated
Thu 05:38:00 AM 48.1103 16.5697 North  Level Estimated
Thu 05:39:00 AM 48.1103 16.5697 North  Level Estimated
Thu 05:40:00 AM 48.1103 16.5697 North  Level Estimated
Thu 05:41:00 AM 48.1103 16.5697 North  Level Estimated

Login

Don't have an account? Register now (free) for customized features, flight alerts, and more!